createdAt,value
2019-02-15T00:01:44.306Z,23.50
2019-02-15T00:06:45.853Z,20.00
2019-02-15T00:11:47.469Z,15.90
2019-02-15T00:16:49.091Z,21.37
2019-02-15T00:21:51.057Z,17.27
2019-02-15T00:26:52.656Z,18.07
2019-02-15T00:31:54.244Z,22.60
2019-02-15T00:36:55.891Z,22.20
2019-02-15T00:41:57.814Z,17.07
2019-02-15T00:46:59.421Z,16.60
2019-02-15T00:52:01.015Z,16.07
2019-02-15T00:57:03.373Z,19.63
2019-02-15T01:02:04.901Z,22.17
2019-02-15T01:07:07.359Z,22.50
2019-02-15T01:12:08.946Z,21.23
2019-02-15T01:17:10.533Z,15.07
2019-02-15T01:22:12.189Z,17.33
2019-02-15T01:27:14.170Z,17.50
2019-02-15T01:32:16.140Z,16.97
2019-02-15T01:37:17.714Z,17.87
2019-02-15T01:42:19.374Z,17.37
2019-02-15T01:47:21.008Z,18.23
2019-02-15T01:52:22.545Z,15.20
2019-02-15T01:57:24.135Z,18.50
2019-02-15T02:02:25.695Z,16.07
2019-02-15T02:07:27.263Z,16.83
2019-02-15T02:12:28.822Z,19.70
2019-02-15T02:17:30.395Z,23.53
2019-02-15T02:22:32.020Z,19.00
2019-02-15T02:27:33.629Z,15.77
2019-02-15T02:32:35.215Z,15.50
2019-02-15T02:37:36.779Z,18.10
2019-02-15T02:42:38.879Z,21.23
2019-02-15T02:47:40.441Z,17.43
2019-02-15T02:52:42.011Z,15.07
2019-02-15T02:57:43.589Z,15.80
2019-02-15T03:02:45.187Z,14.63
2019-02-15T03:07:46.756Z,16.83
2019-02-15T03:12:48.335Z,12.50
2019-02-15T03:17:49.894Z,15.50
2019-02-15T03:22:51.510Z,17.73
2019-02-15T03:27:53.490Z,20.53
2019-02-15T03:32:55.152Z,21.40
2019-02-15T03:37:56.739Z,17.23
2019-02-15T03:42:58.669Z,15.90
2019-02-15T03:48:00.316Z,23.40
2019-02-15T03:53:01.890Z,19.03
2019-02-15T03:58:03.505Z,18.03
2019-02-15T04:03:05.058Z,21.60
2019-02-15T04:08:06.684Z,18.00
2019-02-15T04:13:08.226Z,20.13
2019-02-15T04:18:09.798Z,16.43
2019-02-15T04:23:11.385Z,18.33
2019-02-15T04:28:12.962Z,16.57
2019-02-15T04:33:14.543Z,26.07
2019-02-15T04:38:16.133Z,19.53
2019-02-15T04:43:17.673Z,21.27
2019-02-15T04:48:19.252Z,14.60
2019-02-15T04:53:20.890Z,15.83
2019-02-15T04:58:22.469Z,17.73
2019-02-15T05:03:24.127Z,19.40
2019-02-15T05:08:25.704Z,18.27
2019-02-15T05:13:27.772Z,19.57
2019-02-15T05:18:29.374Z,20.00
2019-02-15T05:23:30.930Z,13.57
2019-02-15T05:28:32.485Z,19.50
2019-02-15T05:33:35.670Z,23.07
2019-02-15T05:38:37.879Z,17.77
2019-02-15T05:43:39.437Z,22.13
2019-02-15T05:48:41.045Z,19.10
2019-02-15T05:53:42.673Z,18.43
2019-02-15T05:58:44.405Z,17.30
2019-02-15T06:03:46.005Z,14.77
2019-02-15T06:08:47.991Z,14.80
2019-02-15T06:13:49.656Z,22.10
2019-02-15T06:18:51.263Z,20.07
2019-02-15T06:23:52.876Z,15.77
2019-02-15T06:28:54.498Z,19.83
2019-02-15T06:33:56.106Z,15.17
2019-02-15T06:38:57.726Z,19.43
2019-02-15T06:43:59.350Z,15.10
2019-02-15T06:49:00.912Z,18.50
2019-02-15T06:54:02.481Z,17.13
2019-02-15T06:59:04.091Z,14.83
2019-02-15T07:04:05.876Z,15.63
2019-02-15T07:09:07.537Z,14.90
2019-02-15T07:14:09.600Z,15.98
2019-02-15T07:19:11.210Z,15.37
2019-02-15T07:24:12.844Z,13.40
2019-02-15T07:29:14.852Z,16.40
2019-02-15T07:34:16.448Z,18.57
2019-02-15T07:39:18.009Z,15.20
2019-02-15T07:44:19.628Z,13.23
2019-02-15T07:49:26.962Z,14.60
2019-02-15T07:54:24.890Z,16.57
2019-02-15T07:59:26.479Z,15.83
2019-02-15T08:04:29.093Z,16.57
2019-02-15T08:09:30.641Z,13.90
2019-02-15T08:14:32.271Z,16.23
2019-02-15T08:19:33.959Z,14.73
2019-02-15T08:24:35.536Z,16.33
2019-02-15T08:29:37.176Z,16.20
2019-02-15T08:34:38.789Z,14.83
2019-02-15T08:39:40.416Z,15.63
2019-02-15T08:44:42.055Z,19.53
2019-02-15T08:49:43.613Z,15.57
2019-02-15T08:54:45.210Z,14.67
2019-02-15T08:59:47.157Z,14.23
2019-02-15T09:04:48.830Z,17.70
2019-02-15T09:09:50.474Z,15.97
2019-02-15T09:14:52.109Z,16.53
2019-02-15T09:19:53.703Z,18.47
2019-02-15T09:24:55.297Z,13.80
2019-02-15T09:29:56.995Z,13.57
2019-02-15T09:34:58.605Z,13.73
2019-02-15T09:40:00.302Z,13.90
2019-02-15T09:45:01.998Z,18.17
2019-02-15T09:50:04.656Z,16.07
2019-02-15T09:55:07.495Z,11.93
2019-02-15T10:00:09.160Z,14.93
2019-02-15T10:05:11.814Z,14.07
2019-02-15T10:10:13.435Z,16.17
2019-02-15T10:15:15.058Z,19.13
2019-02-15T10:20:16.691Z,15.57
2019-02-15T10:25:18.730Z,10.97
2019-02-15T10:30:20.327Z,13.30
2019-02-15T10:35:21.913Z,7.43
2019-02-15T10:40:23.596Z,11.77
2019-02-15T10:45:25.144Z,8.30
2019-02-15T10:50:27.361Z,13.73
2019-02-15T10:55:29.137Z,11.50
2019-02-15T11:00:30.904Z,9.77
2019-02-15T11:05:32.903Z,11.33
2019-02-15T11:10:34.462Z,12.67
2019-02-15T11:15:36.042Z,11.47
2019-02-15T11:20:37.672Z,9.87
2019-02-15T11:25:39.239Z,12.83
2019-02-15T11:30:40.841Z,10.83
2019-02-15T11:35:42.454Z,8.57
2019-02-15T11:40:44.586Z,9.67
2019-02-15T11:45:46.222Z,9.17
2019-02-15T11:50:47.789Z,8.57
2019-02-15T11:55:49.332Z,9.77
2019-02-15T12:00:50.971Z,7.33
2019-02-15T12:05:52.667Z,6.90
2019-02-15T12:10:54.947Z,6.00
2019-02-15T12:15:56.662Z,7.97
2019-02-15T12:20:58.728Z,9.33
2019-02-15T12:26:00.396Z,8.10
2019-02-15T12:31:01.975Z,6.73
2019-02-15T12:36:03.574Z,9.17
2019-02-15T12:41:05.126Z,6.97
2019-02-15T12:46:07.070Z,9.67
2019-02-15T12:51:08.648Z,8.10
2019-02-15T12:56:12.802Z,7.00
2019-02-15T13:01:14.753Z,8.83
2019-02-15T13:06:16.309Z,5.87
2019-02-15T13:11:17.863Z,7.80
2019-02-15T13:16:19.694Z,6.87
2019-02-15T13:21:21.238Z,8.27
2019-02-15T13:26:24.126Z,8.10
2019-02-15T13:31:25.968Z,6.80
2019-02-15T13:36:28.396Z,13.38
2019-02-15T13:41:31.071Z,15.97
2019-02-15T13:46:33.395Z,10.77
2019-02-15T13:51:35.596Z,7.45
2019-02-15T13:56:37.154Z,9.83
2019-02-15T14:01:39.083Z,7.85
2019-02-15T14:06:40.641Z,10.28
2019-02-15T14:11:42.191Z,6.97
2019-02-15T14:16:43.763Z,9.60
2019-02-15T14:21:45.977Z,6.92
2019-02-15T14:26:48.058Z,5.92
2019-02-15T14:31:49.986Z,8.75
2019-02-15T14:36:51.873Z,5.35
2019-02-15T14:41:53.773Z,5.58
2019-02-15T14:46:55.404Z,8.08
2019-02-15T14:51:56.997Z,7.58
2019-02-15T14:56:58.985Z,5.58
2019-02-15T15:02:01.089Z,7.08
2019-02-15T15:07:02.696Z,8.43
2019-02-15T15:12:04.437Z,6.53
2019-02-15T15:17:06.015Z,7.08
2019-02-15T15:22:07.665Z,6.62
2019-02-15T15:27:09.228Z,10.40
2019-02-15T15:32:11.414Z,6.50
2019-02-15T15:37:16.561Z,7.50
2019-02-15T15:42:17.086Z,5.78
2019-02-15T15:47:18.856Z,7.55
2019-02-15T15:52:20.560Z,8.40
2019-02-15T15:57:22.202Z,5.37
2019-02-15T16:02:24.172Z,6.15
2019-02-15T16:07:26.048Z,7.60
2019-02-15T16:12:27.747Z,7.30
2019-02-15T16:17:29.747Z,5.95
2019-02-15T16:22:31.473Z,6.20
2019-02-15T16:27:33.108Z,6.87
2019-02-15T16:32:34.721Z,11.10
2019-02-15T16:37:36.331Z,7.60
2019-02-15T16:42:38.073Z,8.68
2019-02-15T16:47:39.786Z,11.88
2019-02-15T16:52:41.521Z,11.97
2019-02-15T16:57:43.074Z,8.67
2019-02-15T17:02:44.811Z,14.60
2019-02-15T17:07:46.425Z,9.57
2019-02-15T17:12:48.054Z,10.33
2019-02-15T17:17:49.697Z,14.33
2019-02-15T17:22:51.292Z,8.23
2019-02-15T17:27:52.853Z,8.17
2019-02-15T17:32:54.475Z,13.33
2019-02-15T17:37:56.418Z,15.27
2019-02-15T17:42:58.728Z,8.27
2019-02-15T17:48:00.779Z,14.33
2019-02-15T17:53:02.759Z,10.27
2019-02-15T17:58:04.371Z,10.53
2019-02-15T18:03:05.992Z,13.13
2019-02-15T18:08:07.615Z,17.63
2019-02-15T18:13:09.632Z,28.70
2019-02-15T18:18:11.253Z,30.27
2019-02-15T18:23:13.125Z,26.23
2019-02-15T18:28:14.797Z,21.70
2019-02-15T18:33:16.431Z,17.60
2019-02-15T18:38:19.024Z,16.77
2019-02-15T18:43:21.101Z,14.47
2019-02-15T18:48:22.679Z,14.23
2019-02-15T18:53:24.352Z,13.43
2019-02-15T18:58:26.053Z,15.40
2019-02-15T19:03:27.761Z,15.07
2019-02-15T19:08:29.796Z,22.83
2019-02-15T19:13:31.381Z,12.47
2019-02-15T19:18:33.901Z,14.57
2019-02-15T19:23:35.529Z,15.47
2019-02-15T19:28:37.112Z,14.90
2019-02-15T19:33:39.104Z,25.20
2019-02-15T19:38:40.939Z,13.97
2019-02-15T19:43:43.872Z,17.73
2019-02-15T19:48:45.458Z,16.87
2019-02-15T19:53:47.084Z,13.50
2019-02-15T19:58:48.762Z,14.73
2019-02-15T20:03:50.422Z,19.07
2019-02-15T20:08:52.089Z,17.20
2019-02-15T20:13:53.755Z,18.20
2019-02-15T20:18:56.350Z,18.00
2019-02-15T20:23:58.052Z,19.33
2019-02-15T20:28:59.645Z,16.73
2019-02-15T20:34:01.223Z,24.73
2019-02-15T20:39:02.913Z,20.50
2019-02-15T20:44:04.890Z,19.00
2019-02-15T20:49:07.547Z,22.77
2019-02-15T20:54:09.258Z,21.03
2019-02-15T20:59:10.892Z,19.07
2019-02-15T21:04:12.928Z,16.40
2019-02-15T21:09:15.616Z,17.60
2019-02-15T21:14:17.666Z,19.37
2019-02-15T21:19:19.851Z,27.43
2019-02-15T21:24:21.573Z,19.47
2019-02-15T21:29:25.323Z,18.57
2019-02-15T21:34:26.971Z,19.13
2019-02-15T21:39:28.802Z,18.63
2019-02-15T21:44:30.413Z,17.43
2019-02-15T21:49:32.095Z,16.07
2019-02-15T21:54:33.661Z,21.87
2019-02-15T21:59:35.431Z,23.57
2019-02-15T22:04:37.205Z,14.47
2019-02-15T22:09:39.110Z,18.13
2019-02-15T22:14:40.712Z,21.27
2019-02-15T22:19:42.391Z,17.77
2019-02-15T22:24:43.942Z,21.10
2019-02-15T22:29:45.499Z,21.93
2019-02-15T22:34:47.046Z,16.53
2019-02-15T22:39:48.618Z,17.13
2019-02-15T22:44:50.577Z,18.00
2019-02-15T22:49:52.195Z,19.83
2019-02-15T22:54:55.279Z,22.83
2019-02-15T23:00:00.976Z,23.43
2019-02-15T23:05:00.406Z,26.17
2019-02-15T23:10:02.402Z,25.47
2019-02-15T23:15:04.015Z,26.27
2019-02-15T23:20:05.799Z,21.30
2019-02-15T23:25:07.436Z,23.90
2019-02-15T23:30:09.399Z,21.87
2019-02-15T23:35:11.024Z,19.87
2019-02-15T23:40:12.582Z,20.53
2019-02-15T23:45:14.199Z,22.93
2019-02-15T23:50:15.726Z,23.53
2019-02-15T23:55:17.380Z,21.67
